createdAt,value
2023-04-08T00:00:11.295Z,28.00
2023-04-08T00:03:01.178Z,26.50
2023-04-08T00:05:31.124Z,25.10
2023-04-08T00:08:00.128Z,28.60
2023-04-08T00:10:29.072Z,27.90
2023-04-08T00:12:58.047Z,31.00
2023-04-08T00:15:27.140Z,30.20
2023-04-08T00:17:56.561Z,27.30
2023-04-08T00:20:25.927Z,30.60
2023-04-08T00:22:54.789Z,27.10
2023-04-08T00:25:25.519Z,29.20
2023-04-08T00:27:54.830Z,33.40
2023-04-08T00:30:23.812Z,30.80
2023-04-08T00:32:52.821Z,30.10
2023-04-08T00:35:22.145Z,31.10
2023-04-08T00:37:51.220Z,34.00
2023-04-08T00:40:20.553Z,32.60
2023-04-08T00:42:49.755Z,30.90
2023-04-08T00:45:18.867Z,29.40
2023-04-08T00:47:51.899Z,29.10
2023-04-08T00:50:21.376Z,32.30
2023-04-08T00:52:50.517Z,30.70
2023-04-08T00:55:19.559Z,31.50
2023-04-08T00:57:49.159Z,33.30
2023-04-08T01:00:18.198Z,30.10
2023-04-08T01:02:55.211Z,29.10
2023-04-08T01:05:38.126Z,30.40
2023-04-08T01:08:08.780Z,28.70
2023-04-08T01:10:42.345Z,29.20
2023-04-08T01:13:16.076Z,33.00
2023-04-08T01:15:46.404Z,27.40
2023-04-08T01:18:17.159Z,30.70
2023-04-08T01:20:47.645Z,28.20
2023-04-08T01:23:25.057Z,27.50
2023-04-08T01:25:55.226Z,32.70
2023-04-08T01:28:26.996Z,28.70
2023-04-08T01:30:59.269Z,29.80
2023-04-08T01:33:29.496Z,34.30
2023-04-08T01:36:00.345Z,30.90
2023-04-08T01:38:31.794Z,34.20
2023-04-08T01:41:00.964Z,31.40
2023-04-08T01:43:31.738Z,31.40
2023-04-08T01:46:01.701Z,27.50
2023-04-08T01:48:31.570Z,30.40
2023-04-08T01:51:02.246Z,32.70
2023-04-08T01:53:31.400Z,32.40
2023-04-08T01:56:06.903Z,33.10
2023-04-08T01:58:41.196Z,35.50
2023-04-08T02:01:13.994Z,34.50
2023-04-08T02:03:45.446Z,31.40
2023-04-08T02:06:14.526Z,28.30
2023-04-08T02:08:43.425Z,31.10
2023-04-08T02:11:12.581Z,38.20
2023-04-08T02:13:41.770Z,29.40
2023-04-08T02:16:16.401Z,32.40
2023-04-08T02:18:50.981Z,31.70
2023-04-08T02:21:23.096Z,32.40
2023-04-08T02:23:52.802Z,31.20
2023-04-08T02:26:22.927Z,31.50
2023-04-08T02:28:54.196Z,37.30
2023-04-08T02:31:24.014Z,34.40
2023-04-08T02:33:54.831Z,32.60
2023-04-08T02:36:24.075Z,35.20
2023-04-08T02:38:53.169Z,34.20
2023-04-08T02:41:22.258Z,35.90
2023-04-08T02:43:55.085Z,29.90
2023-04-08T02:46:24.011Z,33.70
2023-04-08T02:48:53.382Z,35.60
2023-04-08T02:51:22.266Z,32.60
2023-04-08T02:53:51.208Z,31.60
2023-04-08T02:56:21.189Z,30.20
2023-04-08T02:58:51.655Z,31.30
2023-04-08T03:01:21.067Z,35.20
2023-04-08T03:03:50.682Z,32.90
2023-04-08T03:06:19.895Z,29.70
2023-04-08T03:08:49.072Z,33.90
2023-04-08T03:11:18.353Z,32.80
2023-04-08T03:13:47.279Z,37.10
2023-04-08T03:16:16.348Z,30.70
2023-04-08T03:18:45.797Z,36.80
2023-04-08T03:21:15.198Z,33.50
2023-04-08T03:23:44.332Z,35.30
2023-04-08T03:26:13.237Z,36.10
2023-04-08T03:28:42.187Z,33.30
2023-04-08T03:31:11.166Z,36.40
2023-04-08T03:33:40.328Z,31.40
2023-04-08T03:36:09.672Z,34.70
2023-04-08T03:38:38.692Z,33.00
2023-04-08T03:41:07.779Z,31.80
2023-04-08T03:43:37.916Z,35.80
2023-04-08T03:46:07.250Z,35.10
2023-04-08T03:48:36.414Z,31.10
2023-04-08T03:51:05.656Z,41.30
2023-04-08T03:53:34.466Z,33.80
2023-04-08T03:56:04.068Z,35.80
2023-04-08T03:58:33.028Z,35.80
2023-04-08T04:01:02.222Z,35.10
2023-04-08T04:03:31.686Z,37.00
2023-04-08T04:06:00.772Z,33.60
2023-04-08T04:08:29.704Z,33.70
2023-04-08T04:10:59.712Z,35.30
2023-04-08T04:13:28.685Z,32.70
2023-04-08T04:15:57.752Z,38.30
2023-04-08T04:18:26.934Z,36.70
2023-04-08T04:20:55.990Z,37.90
2023-04-08T04:23:25.356Z,39.10
2023-04-08T04:25:54.380Z,39.50
2023-04-08T04:28:23.355Z,37.30
2023-04-08T04:30:53.340Z,37.30
2023-04-08T04:33:23.609Z,39.70
2023-04-08T04:35:53.316Z,34.30
2023-04-08T04:38:22.371Z,40.70
2023-04-08T04:40:51.483Z,38.60
2023-04-08T04:43:20.491Z,37.60
2023-04-08T04:45:49.371Z,34.20
2023-04-08T04:48:18.239Z,41.00
2023-04-08T04:50:55.975Z,34.80
2023-04-08T04:53:25.025Z,40.40
2023-04-08T04:55:54.733Z,39.90
2023-04-08T04:58:23.750Z,41.30
2023-04-08T05:00:52.775Z,51.80
2023-04-08T05:03:21.845Z,43.20
2023-04-08T05:05:53.272Z,42.90
2023-04-08T05:08:22.639Z,47.60
2023-04-08T05:10:51.595Z,42.00
2023-04-08T05:13:20.578Z,44.10
2023-04-08T05:15:49.678Z,39.80
2023-04-08T05:18:19.175Z,38.30
2023-04-08T05:20:48.115Z,41.80
2023-04-08T05:23:17.126Z,43.20
2023-04-08T05:25:46.113Z,39.00
2023-04-08T05:28:15.021Z,38.60
2023-04-08T05:30:48.374Z,38.20
2023-04-08T05:33:17.472Z,38.30
2023-04-08T05:35:46.438Z,37.80
2023-04-08T05:38:15.454Z,38.20
2023-04-08T05:40:44.837Z,43.20
2023-04-08T05:43:13.798Z,40.80
2023-04-08T05:45:42.681Z,42.90
2023-04-08T05:48:11.715Z,43.00
2023-04-08T05:50:40.697Z,45.00
2023-04-08T05:53:10.308Z,43.90
2023-04-08T05:55:39.329Z,44.10
2023-04-08T05:58:08.355Z,46.90
2023-04-08T06:00:37.360Z,42.90
2023-04-08T06:03:06.333Z,46.60
2023-04-08T06:05:35.729Z,41.60
2023-04-08T06:08:05.100Z,43.80
2023-04-08T06:10:33.711Z,46.20
2023-04-08T06:13:02.732Z,45.90
2023-04-08T06:15:32.082Z,43.70
2023-04-08T06:18:00.994Z,44.50
2023-04-08T06:20:30.407Z,48.20
2023-04-08T06:22:59.535Z,46.20
2023-04-08T06:25:28.493Z,44.70
2023-04-08T06:27:57.370Z,40.80
2023-04-08T06:30:26.454Z,44.60
2023-04-08T06:32:55.447Z,38.70
2023-04-08T06:35:24.534Z,42.60
2023-04-08T06:37:53.440Z,39.80
2023-04-08T06:40:22.430Z,41.90
2023-04-08T06:42:51.694Z,40.10
2023-04-08T06:45:20.984Z,43.50
2023-04-08T06:47:50.127Z,42.90
2023-04-08T06:50:19.127Z,36.90
2023-04-08T06:52:48.137Z,40.40
2023-04-08T06:55:17.306Z,39.00
2023-04-08T06:57:46.243Z,41.70
2023-04-08T07:00:15.843Z,34.00
2023-04-08T07:02:45.038Z,40.50
2023-04-08T07:05:14.228Z,35.70
2023-04-08T07:07:43.181Z,39.30
2023-04-08T07:10:13.938Z,30.30
2023-04-08T07:12:43.007Z,31.80
2023-04-08T07:15:12.927Z,32.30
2023-04-08T07:17:41.914Z,27.20
2023-04-08T07:20:13.646Z,31.80
2023-04-08T07:22:42.709Z,26.20
2023-04-08T07:25:11.896Z,28.90
2023-04-08T07:27:41.127Z,27.20
2023-04-08T07:30:11.333Z,29.60
2023-04-08T07:32:40.475Z,25.60
2023-04-08T07:35:09.915Z,25.80
2023-04-08T07:37:38.942Z,25.80
2023-04-08T07:40:10.905Z,29.10
2023-04-08T07:42:40.882Z,27.60
2023-04-08T07:45:11.926Z,24.30
2023-04-08T07:47:40.912Z,28.60
2023-04-08T07:50:11.344Z,25.10
2023-04-08T07:52:40.423Z,20.10
2023-04-08T07:55:10.772Z,19.70
2023-04-08T07:57:39.971Z,18.60
2023-04-08T08:00:11.090Z,22.00
2023-04-08T08:02:40.084Z,23.50
2023-04-08T08:05:09.919Z,23.20
2023-04-08T08:07:39.013Z,22.80
2023-04-08T08:10:10.467Z,19.70
2023-04-08T08:12:39.295Z,22.20
2023-04-08T08:15:10.776Z,25.60
2023-04-08T08:17:39.766Z,21.50
2023-04-08T08:20:10.543Z,25.20
2023-04-08T08:22:47.140Z,21.50
2023-04-08T08:25:26.421Z,21.20
2023-04-08T08:27:55.469Z,19.30
2023-04-08T08:30:25.922Z,21.10
2023-04-08T08:32:55.994Z,18.50
2023-04-08T08:35:25.232Z,21.60
2023-04-08T08:37:54.668Z,18.50
2023-04-08T08:40:23.630Z,20.60
2023-04-08T08:42:53.317Z,19.50
2023-04-08T08:45:22.385Z,15.70
2023-04-08T08:47:52.500Z,18.40
2023-04-08T08:50:21.554Z,22.20
2023-04-08T08:52:51.666Z,19.40
2023-04-08T08:55:41.475Z,20.10
2023-04-08T08:58:10.946Z,23.10
2023-04-08T09:00:42.060Z,19.80
2023-04-08T09:03:19.316Z,21.50
2023-04-08T09:05:56.181Z,20.70
2023-04-08T09:08:29.398Z,21.10
2023-04-08T09:11:13.509Z,19.50
2023-04-08T09:13:42.706Z,22.70
2023-04-08T09:16:14.538Z,21.60
2023-04-08T09:18:44.518Z,24.60
2023-04-08T09:21:16.337Z,23.90
2023-04-08T09:23:46.968Z,21.80
2023-04-08T09:26:17.029Z,23.30
2023-04-08T09:28:59.548Z,23.30
2023-04-08T09:31:30.703Z,22.10
2023-04-08T09:34:01.807Z,20.90
2023-04-08T09:36:30.878Z,19.50
2023-04-08T09:38:59.965Z,19.40
2023-04-08T09:41:33.686Z,22.50
2023-04-08T09:44:05.348Z,20.70
2023-04-08T09:46:43.882Z,23.20
2023-04-08T09:49:16.952Z,22.80
2023-04-08T09:51:49.899Z,21.30
2023-04-08T09:54:22.604Z,23.00
2023-04-08T09:57:01.122Z,20.80
2023-04-08T09:59:34.336Z,20.50
2023-04-08T10:02:10.216Z,21.90
2023-04-08T10:04:42.454Z,22.50
2023-04-08T10:07:11.475Z,20.10
2023-04-08T10:09:42.605Z,19.40
2023-04-08T10:12:11.584Z,20.00
2023-04-08T10:14:41.094Z,19.00
2023-04-08T10:17:28.857Z,21.90
2023-04-08T10:19:58.321Z,20.80
2023-04-08T10:22:49.108Z,22.80
2023-04-08T10:25:31.466Z,23.00
2023-04-08T10:28:01.008Z,20.20
2023-04-08T10:30:46.362Z,22.00
2023-04-08T10:33:17.528Z,21.30
2023-04-08T10:35:49.702Z,19.70
2023-04-08T10:38:20.226Z,19.60
2023-04-08T10:40:50.727Z,18.10
2023-04-08T10:43:20.284Z,20.00
2023-04-08T10:45:50.716Z,20.90
2023-04-08T10:48:21.952Z,21.50
2023-04-08T10:50:55.288Z,19.00
2023-04-08T10:53:31.295Z,21.50
2023-04-08T10:56:08.010Z,16.80
2023-04-08T10:58:47.199Z,20.50
2023-04-08T11:01:16.230Z,17.20
2023-04-08T11:03:45.424Z,20.90
2023-04-08T11:06:14.686Z,25.90
2023-04-08T11:08:44.614Z,23.40
2023-04-08T11:11:14.798Z,21.50
2023-04-08T11:13:53.308Z,17.40
2023-04-08T11:16:23.377Z,19.20
2023-04-08T11:18:53.531Z,18.20
2023-04-08T11:21:28.637Z,17.40
2023-04-08T11:23:58.315Z,17.70
2023-04-08T11:26:28.155Z,16.90
2023-04-08T11:28:58.374Z,17.60
2023-04-08T11:31:27.932Z,19.00
2023-04-08T11:33:57.017Z,19.20
2023-04-08T11:36:26.686Z,16.70
2023-04-08T11:38:55.982Z,16.60
2023-04-08T11:41:26.104Z,18.90
2023-04-08T11:43:56.927Z,20.10
2023-04-08T11:46:26.193Z,19.80
2023-04-08T11:49:03.253Z,16.40
2023-04-08T11:51:33.748Z,18.30
2023-04-08T11:54:06.634Z,14.60
2023-04-08T11:56:47.092Z,15.70
2023-04-08T11:59:16.239Z,14.20
2023-04-08T12:01:46.024Z,16.10
2023-04-08T12:04:15.364Z,16.90
2023-04-08T12:06:46.543Z,18.10
2023-04-08T12:09:15.875Z,15.80
2023-04-08T12:11:45.398Z,16.70
2023-04-08T12:14:14.545Z,17.00
2023-04-08T12:16:43.612Z,17.70
2023-04-08T12:19:12.682Z,18.50
2023-04-08T12:21:41.750Z,15.90
2023-04-08T12:24:10.623Z,16.50
2023-04-08T12:26:39.588Z,17.80
2023-04-08T12:29:11.157Z,17.50
2023-04-08T12:31:40.410Z,17.40
2023-04-08T12:34:09.273Z,16.70
2023-04-08T12:36:39.868Z,20.20
2023-04-08T12:39:10.386Z,16.80
2023-04-08T12:41:39.378Z,19.30
2023-04-08T12:44:08.475Z,18.20
2023-04-08T12:46:37.424Z,15.10
2023-04-08T12:49:06.713Z,16.00
2023-04-08T12:51:36.447Z,17.30
2023-04-08T12:54:05.673Z,15.30
2023-04-08T12:56:34.862Z,18.80
2023-04-08T12:59:03.858Z,17.40
2023-04-08T13:01:32.954Z,16.90
2023-04-08T13:04:02.441Z,17.10
2023-04-08T13:06:32.028Z,17.00
2023-04-08T13:09:01.141Z,17.60
2023-04-08T13:11:30.431Z,15.80
2023-04-08T13:13:59.426Z,17.90
2023-04-08T13:16:28.374Z,15.10
2023-04-08T13:18:57.392Z,14.80
2023-04-08T13:21:26.876Z,16.90
2023-04-08T13:23:55.731Z,17.70
2023-04-08T13:26:24.818Z,15.60
2023-04-08T13:28:57.572Z,16.70
2023-04-08T13:31:27.102Z,13.60
2023-04-08T13:33:58.205Z,14.70
2023-04-08T13:36:27.827Z,18.60
2023-04-08T13:38:56.785Z,19.20
2023-04-08T13:41:27.516Z,15.70
2023-04-08T13:43:56.588Z,20.20
2023-04-08T13:46:25.646Z,15.40
2023-04-08T13:48:55.017Z,35.60
2023-04-08T13:51:24.262Z,14.60
2023-04-08T13:53:53.046Z,15.00
2023-04-08T13:56:21.837Z,16.30
2023-04-08T13:58:57.144Z,14.10
2023-04-08T14:01:26.807Z,17.10
2023-04-08T14:03:55.824Z,15.40
2023-04-08T14:06:24.852Z,17.00
2023-04-08T14:08:53.936Z,14.90
2023-04-08T14:11:23.232Z,15.30
2023-04-08T14:13:52.134Z,15.70
2023-04-08T14:16:20.947Z,18.00
2023-04-08T14:18:50.779Z,15.40
2023-04-08T14:21:20.344Z,15.10
2023-04-08T14:23:49.327Z,15.10
2023-04-08T14:26:18.380Z,13.20
2023-04-08T14:28:47.541Z,14.80
2023-04-08T14:31:16.613Z,14.20
2023-04-08T14:33:45.582Z,12.90
2023-04-08T14:36:14.598Z,16.20
2023-04-08T14:38:43.576Z,14.10
2023-04-08T14:41:12.550Z,13.70
2023-04-08T14:43:41.500Z,13.10
2023-04-08T14:46:10.499Z,15.70
2023-04-08T14:48:39.718Z,13.70
2023-04-08T14:51:08.758Z,16.90
2023-04-08T14:53:37.698Z,15.50
2023-04-08T14:56:08.880Z,14.50
2023-04-08T14:58:38.061Z,15.70
2023-04-08T15:01:07.072Z,15.00
2023-04-08T15:03:36.073Z,16.70
2023-04-08T15:06:06.016Z,13.80
2023-04-08T15:08:35.183Z,17.80
2023-04-08T15:11:04.321Z,14.40
2023-04-08T15:13:35.314Z,14.90
2023-04-08T15:16:05.373Z,15.20
2023-04-08T15:18:34.484Z,13.90
2023-04-08T15:21:03.560Z,14.40
2023-04-08T15:23:32.603Z,13.90
2023-04-08T15:26:01.639Z,14.80
2023-04-08T15:28:31.658Z,11.90
2023-04-08T15:31:01.126Z,15.50
2023-04-08T15:33:30.054Z,15.60
2023-04-08T15:36:02.994Z,17.00
2023-04-08T15:38:33.037Z,16.20
2023-04-08T15:41:02.361Z,13.60
2023-04-08T15:43:31.473Z,13.80
2023-04-08T15:46:00.646Z,13.00
2023-04-08T15:48:29.595Z,12.70
2023-04-08T15:50:58.720Z,15.50
2023-04-08T15:53:27.744Z,16.30
2023-04-08T15:55:56.716Z,15.70
2023-04-08T15:58:25.754Z,15.40
2023-04-08T16:00:55.284Z,13.60
2023-04-08T16:03:24.681Z,13.90
2023-04-08T16:05:53.828Z,13.80
2023-04-08T16:08:23.151Z,16.80
2023-04-08T16:10:52.588Z,16.10
2023-04-08T16:13:21.618Z,16.70
2023-04-08T16:15:50.715Z,17.70
2023-04-08T16:18:20.091Z,16.00
2023-04-08T16:20:49.574Z,18.20
2023-04-08T16:23:18.662Z,14.90
2023-04-08T16:25:47.825Z,16.80
2023-04-08T16:28:17.484Z,15.70
2023-04-08T16:30:47.139Z,16.50
2023-04-08T16:33:16.191Z,22.20
2023-04-08T16:35:45.471Z,19.40
2023-04-08T16:38:14.897Z,18.30
2023-04-08T16:40:43.894Z,16.60
2023-04-08T16:43:14.150Z,17.10
2023-04-08T16:45:43.283Z,18.50
2023-04-08T16:48:12.590Z,18.10
2023-04-08T16:50:42.565Z,17.10
2023-04-08T16:53:11.775Z,17.80
2023-04-08T16:55:40.925Z,15.10
2023-04-08T16:58:10.468Z,17.60
2023-04-08T17:00:39.819Z,17.10
2023-04-08T17:03:08.974Z,17.60
2023-04-08T17:05:38.075Z,21.50
2023-04-08T17:08:07.487Z,15.70
2023-04-08T17:10:36.485Z,19.30
2023-04-08T17:13:05.482Z,16.30
2023-04-08T17:15:36.150Z,20.50
2023-04-08T17:18:06.648Z,17.50
2023-04-08T17:20:35.617Z,18.00
2023-04-08T17:23:04.635Z,19.10
2023-04-08T17:25:34.872Z,21.20
2023-04-08T17:28:03.908Z,17.60
2023-04-08T17:30:32.807Z,19.30
2023-04-08T17:33:02.543Z,21.00
2023-04-08T17:35:31.974Z,23.20
2023-04-08T17:38:02.673Z,20.10
2023-04-08T17:40:32.051Z,18.50
2023-04-08T17:43:01.125Z,18.90
2023-04-08T17:45:30.136Z,20.90
2023-04-08T17:47:59.311Z,20.50
2023-04-08T17:50:28.492Z,21.80
2023-04-08T17:52:57.572Z,21.40
2023-04-08T17:55:27.009Z,22.10
2023-04-08T17:57:56.080Z,21.60
2023-04-08T18:00:25.782Z,21.00
2023-04-08T18:02:55.477Z,21.10
2023-04-08T18:05:24.587Z,23.10
2023-04-08T18:07:53.623Z,23.10
2023-04-08T18:10:24.052Z,24.00
2023-04-08T18:12:57.808Z,35.70
2023-04-08T18:15:37.060Z,27.00
2023-04-08T18:18:06.349Z,179.40
2023-04-08T18:20:36.787Z,35.10
2023-04-08T18:23:05.916Z,32.10
2023-04-08T18:25:34.954Z,29.10
2023-04-08T18:28:04.114Z,30.40
2023-04-08T18:30:33.131Z,31.40
2023-04-08T18:33:02.278Z,25.70
2023-04-08T18:35:31.297Z,28.50
2023-04-08T18:38:00.757Z,26.00
2023-04-08T18:40:30.698Z,31.00
2023-04-08T18:43:01.621Z,26.90
2023-04-08T18:45:30.883Z,28.00
2023-04-08T18:48:00.019Z,30.50
2023-04-08T18:50:28.978Z,29.90
2023-04-08T18:52:58.040Z,27.20
2023-04-08T18:55:27.330Z,29.30
2023-04-08T18:57:56.306Z,25.90
2023-04-08T19:00:25.464Z,24.60
2023-04-08T19:02:54.492Z,28.20
2023-04-08T19:05:23.719Z,23.30
2023-04-08T19:07:52.699Z,27.90
2023-04-08T19:10:24.267Z,26.60
2023-04-08T19:12:53.650Z,24.90
2023-04-08T19:15:22.899Z,27.50
2023-04-08T19:17:52.760Z,25.50
2023-04-08T19:20:21.882Z,31.20
2023-04-08T19:22:51.634Z,26.70
2023-04-08T19:25:20.776Z,27.90
2023-04-08T19:27:49.883Z,26.50
2023-04-08T19:30:19.147Z,24.60
2023-04-08T19:32:48.276Z,30.70
2023-04-08T19:35:17.614Z,28.90
2023-04-08T19:37:46.597Z,28.40
2023-04-08T19:40:15.986Z,29.90
2023-04-08T19:42:46.018Z,29.00
2023-04-08T19:45:15.267Z,28.90
2023-04-08T19:47:44.433Z,29.20
2023-04-08T19:50:13.902Z,28.80
2023-04-08T19:52:43.064Z,33.60
2023-04-08T19:55:12.116Z,28.80
2023-04-08T19:57:41.285Z,31.40
2023-04-08T20:00:14.107Z,30.90
2023-04-08T20:02:43.502Z,28.30
2023-04-08T20:05:15.640Z,31.70
2023-04-08T20:07:44.734Z,31.40
2023-04-08T20:10:14.036Z,34.30
2023-04-08T20:12:43.068Z,36.80
2023-04-08T20:15:23.749Z,30.00
2023-04-08T20:17:54.378Z,35.50
2023-04-08T20:20:23.511Z,38.40
2023-04-08T20:22:52.618Z,41.70
2023-04-08T20:25:22.387Z,50.00
2023-04-08T20:27:51.713Z,38.10
2023-04-08T20:30:20.746Z,44.00
2023-04-08T20:32:49.882Z,43.00
2023-04-08T20:35:19.250Z,45.10
2023-04-08T20:37:48.316Z,43.30
2023-04-08T20:40:18.419Z,38.80
2023-04-08T20:42:47.788Z,42.90
2023-04-08T20:45:16.897Z,44.30
2023-04-08T20:47:46.496Z,41.40
2023-04-08T20:50:15.647Z,42.50
2023-04-08T20:52:44.710Z,44.50
2023-04-08T20:55:14.069Z,40.70
2023-04-08T20:57:43.753Z,45.20
2023-04-08T21:00:15.437Z,42.60
2023-04-08T21:02:44.846Z,37.50
2023-04-08T21:05:14.312Z,38.30
2023-04-08T21:07:44.074Z,39.80
2023-04-08T21:10:13.722Z,36.50
2023-04-08T21:12:42.756Z,36.50
2023-04-08T21:15:12.450Z,35.30
2023-04-08T21:17:41.803Z,33.80
2023-04-08T21:20:13.062Z,33.60
2023-04-08T21:22:42.043Z,35.50
2023-04-08T21:25:11.660Z,35.80
2023-04-08T21:27:40.801Z,34.30
2023-04-08T21:30:11.217Z,33.20
2023-04-08T21:32:40.676Z,30.10
2023-04-08T21:35:10.511Z,33.10
2023-04-08T21:37:39.636Z,29.70
2023-04-08T21:40:11.214Z,33.30
2023-04-08T21:42:40.296Z,32.50
2023-04-08T21:45:11.610Z,35.50
2023-04-08T21:47:40.838Z,37.70
2023-04-08T21:50:10.882Z,36.30
2023-04-08T21:52:41.594Z,40.60
2023-04-08T21:55:12.258Z,44.60
2023-04-08T21:57:42.127Z,39.00
2023-04-08T22:00:14.097Z,45.50
2023-04-08T22:02:43.177Z,43.60
2023-04-08T22:05:12.866Z,42.60
2023-04-08T22:07:42.095Z,44.00
2023-04-08T22:10:12.307Z,38.50
2023-04-08T22:12:41.358Z,39.00
2023-04-08T22:15:11.708Z,36.10
2023-04-08T22:17:40.696Z,35.50
2023-04-08T22:20:11.912Z,36.30
2023-04-08T22:22:41.014Z,36.80
2023-04-08T22:25:11.255Z,37.40
2023-04-08T22:27:40.264Z,35.90
2023-04-08T22:30:11.351Z,37.70
2023-04-08T22:32:40.359Z,35.70
2023-04-08T22:35:10.579Z,37.40
2023-04-08T22:37:39.880Z,40.40
2023-04-08T22:40:10.627Z,37.50
2023-04-08T22:42:39.638Z,36.60
2023-04-08T22:45:09.803Z,34.70
2023-04-08T22:47:38.798Z,36.80
2023-04-08T22:50:10.039Z,35.60
2023-04-08T22:52:38.970Z,35.80
2023-04-08T22:55:09.481Z,35.50
2023-04-08T22:57:38.364Z,34.70
2023-04-08T23:00:09.861Z,35.70
2023-04-08T23:02:39.089Z,38.20
2023-04-08T23:05:10.488Z,34.80
2023-04-08T23:07:39.524Z,39.30
2023-04-08T23:10:10.840Z,35.90
2023-04-08T23:12:39.856Z,38.00
2023-04-08T23:15:09.963Z,32.30
2023-04-08T23:17:39.085Z,38.90
2023-04-08T23:20:10.102Z,32.00
2023-04-08T23:22:39.052Z,30.10
2023-04-08T23:25:10.340Z,30.30
2023-04-08T23:27:39.253Z,34.00
2023-04-08T23:30:10.403Z,42.10
2023-04-08T23:32:39.353Z,30.90
2023-04-08T23:35:09.447Z,32.30
2023-04-08T23:37:39.077Z,31.80
2023-04-08T23:40:10.525Z,33.20
2023-04-08T23:42:39.439Z,33.60
2023-04-08T23:45:10.115Z,37.10
2023-04-08T23:47:39.009Z,33.30
2023-04-08T23:50:10.313Z,34.90
2023-04-08T23:52:39.150Z,31.80
2023-04-08T23:55:09.509Z,39.30
2023-04-08T23:57:41.317Z,32.60
